sensor_id;sensor_type;location;lat;lon;timestamp;P1;durP1;ratioP1;P2;durP2;ratioP2
21305;SDS011;10812;51.838;5.838;2023-07-20T00:00:04;12.55;;;7.88;;
21305;SDS011;10812;51.838;5.838;2023-07-20T00:02:33;12.80;;;9.27;;
21305;SDS011;10812;51.838;5.838;2023-07-20T00:05:01;11.10;;;8.27;;
21305;SDS011;10812;51.838;5.838;2023-07-20T00:07:30;11.33;;;8.20;;
21305;SDS011;10812;51.838;5.838;2023-07-20T00:09:59;9.70;;;8.32;;
21305;SDS011;10812;51.838;5.838;2023-07-20T00:12:27;9.60;;;8.02;;
21305;SDS011;10812;51.838;5.838;2023-07-20T00:14:55;11.38;;;7.10;;
21305;SDS011;10812;51.838;5.838;2023-07-20T00:17:23;9.45;;;7.68;;
21305;SDS011;10812;51.838;5.838;2023-07-20T00:19:51;11.32;;;8.48;;
21305;SDS011;10812;51.838;5.838;2023-07-20T00:22:19;11.00;;;8.23;;
21305;SDS011;10812;51.838;5.838;2023-07-20T00:24:48;11.23;;;8.85;;
21305;SDS011;10812;51.838;5.838;2023-07-20T00:27:16;12.48;;;8.73;;
21305;SDS011;10812;51.838;5.838;2023-07-20T00:29:44;14.07;;;9.27;;
21305;SDS011;10812;51.838;5.838;2023-07-20T00:32:12;10.55;;;8.15;;
21305;SDS011;10812;51.838;5.838;2023-07-20T00:34:41;12.68;;;10.32;;
21305;SDS011;10812;51.838;5.838;2023-07-20T00:37:09;11.77;;;8.60;;
21305;SDS011;10812;51.838;5.838;2023-07-20T00:39:37;16.05;;;9.43;;
21305;SDS011;10812;51.838;5.838;2023-07-20T00:42:06;15.13;;;9.23;;
21305;SDS011;10812;51.838;5.838;2023-07-20T00:44:34;12.73;;;9.47;;
21305;SDS011;10812;51.838;5.838;2023-07-20T00:47:02;9.63;;;8.53;;
21305;SDS011;10812;51.838;5.838;2023-07-20T00:49:31;14.63;;;8.80;;
21305;SDS011;10812;51.838;5.838;2023-07-20T00:51:59;12.00;;;9.40;;
21305;SDS011;10812;51.838;5.838;2023-07-20T00:54:28;13.57;;;8.67;;
21305;SDS011;10812;51.838;5.838;2023-07-20T00:56:57;10.90;;;8.43;;
21305;SDS011;10812;51.838;5.838;2023-07-20T00:59:27;10.53;;;7.80;;
21305;SDS011;10812;51.838;5.838;2023-07-20T01:01:55;10.10;;;8.03;;
21305;SDS011;10812;51.838;5.838;2023-07-20T01:04:23;10.40;;;7.83;;
21305;SDS011;10812;51.838;5.838;2023-07-20T01:06:53;10.97;;;8.20;;
21305;SDS011;10812;51.838;5.838;2023-07-20T01:09:28;10.93;;;7.40;;
21305;SDS011;10812;51.838;5.838;2023-07-20T01:12:02;9.27;;;7.87;;
21305;SDS011;10812;51.838;5.838;2023-07-20T01:14:36;11.00;;;7.37;;
21305;SDS011;10812;51.838;5.838;2023-07-20T01:17:06;8.53;;;7.63;;
21305;SDS011;10812;51.838;5.838;2023-07-20T01:19:34;10.73;;;7.20;;
21305;SDS011;10812;51.838;5.838;2023-07-20T01:22:03;10.80;;;7.73;;
21305;SDS011;10812;51.838;5.838;2023-07-20T01:32:12;8.13;;;6.83;;
21305;SDS011;10812;51.838;5.838;2023-07-20T01:34:44;8.97;;;6.77;;
21305;SDS011;10812;51.838;5.838;2023-07-20T01:37:16;7.13;;;6.43;;
21305;SDS011;10812;51.838;5.838;2023-07-20T01:39:46;9.67;;;6.37;;
21305;SDS011;10812;51.838;5.838;2023-07-20T01:42:14;6.60;;;5.67;;
21305;SDS011;10812;51.838;5.838;2023-07-20T01:44:42;7.37;;;5.10;;
21305;SDS011;10812;51.838;5.838;2023-07-20T01:47:12;5.30;;;4.67;;
21305;SDS011;10812;51.838;5.838;2023-07-20T01:49:40;6.63;;;5.30;;
21305;SDS011;10812;51.838;5.838;2023-07-20T01:52:08;6.90;;;4.93;;
21305;SDS011;10812;51.838;5.838;2023-07-20T01:54:36;5.40;;;4.90;;
21305;SDS011;10812;51.838;5.838;2023-07-20T01:57:04;6.43;;;5.83;;
21305;SDS011;10812;51.838;5.838;2023-07-20T01:59:32;7.67;;;5.10;;
21305;SDS011;10812;51.838;5.838;2023-07-20T02:02:00;6.40;;;5.63;;
21305;SDS011;10812;51.838;5.838;2023-07-20T02:04:30;7.17;;;4.87;;
21305;SDS011;10812;51.838;5.838;2023-07-20T02:06:58;4.40;;;3.83;;
21305;SDS011;10812;51.838;5.838;2023-07-20T02:09:26;6.70;;;5.07;;
21305;SDS011;10812;51.838;5.838;2023-07-20T02:11:54;6.70;;;4.10;;
21305;SDS011;10812;51.838;5.838;2023-07-20T02:14:22;5.40;;;4.90;;
21305;SDS011;10812;51.838;5.838;2023-07-20T02:16:50;5.37;;;4.60;;
21305;SDS011;10812;51.838;5.838;2023-07-20T02:19:20;4.80;;;4.30;;
21305;SDS011;10812;51.838;5.838;2023-07-20T02:21:49;5.80;;;4.03;;
21305;SDS011;10812;51.838;5.838;2023-07-20T02:24:17;5.17;;;4.03;;
21305;SDS011;10812;51.838;5.838;2023-07-20T02:26:46;5.53;;;4.07;;
21305;SDS011;10812;51.838;5.838;2023-07-20T02:29:14;5.63;;;4.17;;
21305;SDS011;10812;51.838;5.838;2023-07-20T02:31:42;4.53;;;4.10;;
21305;SDS011;10812;51.838;5.838;2023-07-20T02:34:10;6.10;;;4.03;;
21305;SDS011;10812;51.838;5.838;2023-07-20T02:36:38;5.10;;;4.40;;
21305;SDS011;10812;51.838;5.838;2023-07-20T02:39:10;6.77;;;5.30;;
21305;SDS011;10812;51.838;5.838;2023-07-20T02:41:38;5.13;;;4.30;;
21305;SDS011;10812;51.838;5.838;2023-07-20T02:44:06;5.17;;;4.07;;
21305;SDS011;10812;51.838;5.838;2023-07-20T02:46:34;4.53;;;4.10;;
21305;SDS011;10812;51.838;5.838;2023-07-20T02:49:02;4.40;;;4.00;;
21305;SDS011;10812;51.838;5.838;2023-07-20T02:51:30;4.30;;;3.90;;
21305;SDS011;10812;51.838;5.838;2023-07-20T02:53:58;6.87;;;4.77;;
21305;SDS011;10812;51.838;5.838;2023-07-20T02:56:28;5.07;;;4.10;;
21305;SDS011;10812;51.838;5.838;2023-07-20T02:58:57;4.67;;;3.83;;
21305;SDS011;10812;51.838;5.838;2023-07-20T03:06:49;5.50;;;4.37;;
21305;SDS011;10812;51.838;5.838;2023-07-20T03:09:17;5.20;;;4.50;;
21305;SDS011;10812;51.838;5.838;2023-07-20T03:11:46;6.63;;;4.77;;
21305;SDS011;10812;51.838;5.838;2023-07-20T03:14:14;5.40;;;4.57;;
21305;SDS011;10812;51.838;5.838;2023-07-20T03:16:42;4.50;;;3.93;;
21305;SDS011;10812;51.838;5.838;2023-07-20T03:19:10;6.33;;;4.53;;
21305;SDS011;10812;51.838;5.838;2023-07-20T03:21:38;4.20;;;3.80;;
21305;SDS011;10812;51.838;5.838;2023-07-20T03:24:07;6.60;;;4.47;;
21305;SDS011;10812;51.838;5.838;2023-07-20T03:26:35;4.97;;;4.03;;
21305;SDS011;10812;51.838;5.838;2023-07-20T03:29:05;6.63;;;3.87;;
21305;SDS011;10812;51.838;5.838;2023-07-20T03:31:33;6.63;;;4.63;;
21305;SDS011;10812;51.838;5.838;2023-07-20T03:34:01;6.27;;;3.93;;
21305;SDS011;10812;51.838;5.838;2023-07-20T03:36:30;4.47;;;3.77;;
21305;SDS011;10812;51.838;5.838;2023-07-20T03:38:58;5.13;;;4.27;;
21305;SDS011;10812;51.838;5.838;2023-07-20T03:41:28;4.40;;;4.00;;
21305;SDS011;10812;51.838;5.838;2023-07-20T03:43:56;4.73;;;4.23;;
21305;SDS011;10812;51.838;5.838;2023-07-20T03:46:26;5.50;;;5.00;;
21305;SDS011;10812;51.838;5.838;2023-07-20T03:48:54;5.47;;;4.70;;
21305;SDS011;10812;51.838;5.838;2023-07-20T03:51:22;6.23;;;4.70;;
21305;SDS011;10812;51.838;5.838;2023-07-20T03:53:50;5.70;;;4.60;;
21305;SDS011;10812;51.838;5.838;2023-07-20T03:56:18;5.87;;;4.83;;
21305;SDS011;10812;51.838;5.838;2023-07-20T03:58:46;5.93;;;5.07;;
21305;SDS011;10812;51.838;5.838;2023-07-20T04:01:14;5.63;;;4.80;;
21305;SDS011;10812;51.838;5.838;2023-07-20T04:03:44;4.83;;;4.30;;
21305;SDS011;10812;51.838;5.838;2023-07-20T04:06:15;6.27;;;4.87;;
21305;SDS011;10812;51.838;5.838;2023-07-20T04:08:43;5.10;;;4.10;;
21305;SDS011;10812;51.838;5.838;2023-07-20T04:11:13;4.70;;;4.17;;
21305;SDS011;10812;51.838;5.838;2023-07-20T04:13:41;4.53;;;4.10;;
21305;SDS011;10812;51.838;5.838;2023-07-20T04:16:10;4.03;;;3.67;;
21305;SDS011;10812;51.838;5.838;2023-07-20T04:18:38;5.20;;;4.30;;
21305;SDS011;10812;51.838;5.838;2023-07-20T04:21:07;5.63;;;4.23;;
21305;SDS011;10812;51.838;5.838;2023-07-20T04:23:36;4.20;;;3.80;;
21305;SDS011;10812;51.838;5.838;2023-07-20T04:26:04;4.30;;;3.90;;
21305;SDS011;10812;51.838;5.838;2023-07-20T04:28:33;5.27;;;4.27;;
21305;SDS011;10812;51.838;5.838;2023-07-20T04:31:09;6.63;;;4.23;;
21305;SDS011;10812;51.838;5.838;2023-07-20T04:33:37;4.60;;;4.07;;
21305;SDS011;10812;51.838;5.838;2023-07-20T04:36:05;5.93;;;4.53;;
21305;SDS011;10812;51.838;5.838;2023-07-20T04:38:35;4.77;;;4.37;;
21305;SDS011;10812;51.838;5.838;2023-07-20T04:41:03;5.63;;;4.80;;
21305;SDS011;10812;51.838;5.838;2023-07-20T04:43:31;5.87;;;5.03;;
21305;SDS011;10812;51.838;5.838;2023-07-20T04:45:59;6.77;;;4.83;;
21305;SDS011;10812;51.838;5.838;2023-07-20T04:48:27;7.17;;;5.47;;
21305;SDS011;10812;51.838;5.838;2023-07-20T04:50:55;5.73;;;5.07;;
21305;SDS011;10812;51.838;5.838;2023-07-20T04:53:25;6.10;;;5.60;;
21305;SDS011;10812;51.838;5.838;2023-07-20T04:55:53;5.70;;;5.20;;
21305;SDS011;10812;51.838;5.838;2023-07-20T04:58:21;5.60;;;5.03;;
21305;SDS011;10812;51.838;5.838;2023-07-20T05:00:49;5.87;;;5.07;;
21305;SDS011;10812;51.838;5.838;2023-07-20T05:03:18;5.40;;;4.90;;
21305;SDS011;10812;51.838;5.838;2023-07-20T05:09:47;6.03;;;5.30;;
21305;SDS011;10812;51.838;5.838;2023-07-20T05:12:15;6.73;;;5.37;;
21305;SDS011;10812;51.838;5.838;2023-07-20T05:14:46;5.17;;;4.63;;
21305;SDS011;10812;51.838;5.838;2023-07-20T05:17:14;8.20;;;4.60;;
21305;SDS011;10812;51.838;5.838;2023-07-20T05:19:42;5.07;;;4.57;;
21305;SDS011;10812;51.838;5.838;2023-07-20T05:22:10;4.77;;;4.10;;
21305;SDS011;10812;51.838;5.838;2023-07-20T05:24:40;5.30;;;4.20;;
21305;SDS011;10812;51.838;5.838;2023-07-20T05:27:10;5.43;;;4.17;;
21305;SDS011;10812;51.838;5.838;2023-07-20T05:29:43;4.70;;;4.27;;
21305;SDS011;10812;51.838;5.838;2023-07-20T05:32:16;4.20;;;3.73;;
21305;SDS011;10812;51.838;5.838;2023-07-20T05:34:43;4.47;;;4.07;;
21305;SDS011;10812;51.838;5.838;2023-07-20T05:37:11;4.20;;;3.80;;
21305;SDS011;10812;51.838;5.838;2023-07-20T05:39:40;4.40;;;4.00;;
21305;SDS011;10812;51.838;5.838;2023-07-20T05:42:10;4.13;;;3.83;;
21305;SDS011;10812;51.838;5.838;2023-07-20T05:44:38;4.30;;;3.37;;
21305;SDS011;10812;51.838;5.838;2023-07-20T05:47:07;5.63;;;3.95;;
21305;SDS011;10812;51.838;5.838;2023-07-20T05:49:35;3.47;;;3.15;;
21305;SDS011;10812;51.838;5.838;2023-07-20T05:52:03;4.15;;;3.50;;
21305;SDS011;10812;51.838;5.838;2023-07-20T05:54:32;3.15;;;2.88;;
21305;SDS011;10812;51.838;5.838;2023-07-20T05:57:00;2.90;;;2.70;;
21305;SDS011;10812;51.838;5.838;2023-07-20T05:59:29;4.63;;;3.38;;
21305;SDS011;10812;51.838;5.838;2023-07-20T06:01:57;2.30;;;2.10;;
21305;SDS011;10812;51.838;5.838;2023-07-20T06:04:25;5.65;;;2.60;;
21305;SDS011;10812;51.838;5.838;2023-07-20T06:06:53;2.20;;;1.92;;
21305;SDS011;10812;51.838;5.838;2023-07-20T06:09:21;2.15;;;1.95;;
21305;SDS011;10812;51.838;5.838;2023-07-20T06:11:50;2.40;;;2.20;;
21305;SDS011;10812;51.838;5.838;2023-07-20T06:14:18;2.58;;;2.38;;
21305;SDS011;10812;51.838;5.838;2023-07-20T06:16:47;1.67;;;1.58;;
21305;SDS011;10812;51.838;5.838;2023-07-20T06:19:16;1.90;;;1.30;;
21305;SDS011;10812;51.838;5.838;2023-07-20T06:21:44;2.10;;;1.70;;
21305;SDS011;10812;51.838;5.838;2023-07-20T06:24:12;1.40;;;1.30;;
21305;SDS011;10812;51.838;5.838;2023-07-20T06:26:40;1.90;;;1.10;;
21305;SDS011;10812;51.838;5.838;2023-07-20T06:29:08;2.38;;;1.30;;
21305;SDS011;10812;51.838;5.838;2023-07-20T06:31:36;1.58;;;1.33;;
21305;SDS011;10812;51.838;5.838;2023-07-20T06:34:06;2.00;;;1.60;;
21305;SDS011;10812;51.838;5.838;2023-07-20T06:36:34;1.85;;;1.45;;
21305;SDS011;10812;51.838;5.838;2023-07-20T06:39:02;2.08;;;1.30;;
21305;SDS011;10812;51.838;5.838;2023-07-20T06:41:33;1.35;;;1.20;;
21305;SDS011;10812;51.838;5.838;2023-07-20T06:44:04;2.97;;;1.35;;
21305;SDS011;10812;51.838;5.838;2023-07-20T06:46:34;1.25;;;1.13;;
21305;SDS011;10812;51.838;5.838;2023-07-20T06:49:02;1.50;;;1.13;;
21305;SDS011;10812;51.838;5.838;2023-07-20T06:51:37;0.80;;;0.80;;
21305;SDS011;10812;51.838;5.838;2023-07-20T06:54:05;2.05;;;1.17;;
21305;SDS011;10812;51.838;5.838;2023-07-20T06:56:33;1.40;;;1.30;;
21305;SDS011;10812;51.838;5.838;2023-07-20T06:59:03;1.45;;;1.25;;
21305;SDS011;10812;51.838;5.838;2023-07-20T07:01:31;1.42;;;1.00;;
21305;SDS011;10812;51.838;5.838;2023-07-20T07:03:59;1.52;;;0.80;;
21305;SDS011;10812;51.838;5.838;2023-07-20T07:06:28;1.25;;;1.05;;
21305;SDS011;10812;51.838;5.838;2023-07-20T07:09:00;0.80;;;0.70;;
21305;SDS011;10812;51.838;5.838;2023-07-20T07:11:28;1.48;;;0.60;;
21305;SDS011;10812;51.838;5.838;2023-07-20T07:13:56;0.55;;;0.43;;
21305;SDS011;10812;51.838;5.838;2023-07-20T07:16:24;0.65;;;0.57;;
21305;SDS011;10812;51.838;5.838;2023-07-20T07:18:53;0.80;;;0.75;;
21305;SDS011;10812;51.838;5.838;2023-07-20T07:21:25;1.23;;;0.70;;
21305;SDS011;10812;51.838;5.838;2023-07-20T07:23:53;1.30;;;0.50;;
21305;SDS011;10812;51.838;5.838;2023-07-20T07:26:25;1.05;;;0.63;;
21305;SDS011;10812;51.838;5.838;2023-07-20T07:28:53;1.95;;;0.90;;
21305;SDS011;10812;51.838;5.838;2023-07-20T07:31:21;0.70;;;0.68;;
21305;SDS011;10812;51.838;5.838;2023-07-20T07:33:49;1.00;;;0.52;;
21305;SDS011;10812;51.838;5.838;2023-07-20T07:36:17;1.08;;;0.80;;
21305;SDS011;10812;51.838;5.838;2023-07-20T07:38:46;1.33;;;0.80;;
21305;SDS011;10812;51.838;5.838;2023-07-20T07:41:35;0.57;;;0.50;;
21305;SDS011;10812;51.838;5.838;2023-07-20T07:44:04;2.13;;;1.58;;
21305;SDS011;10812;51.838;5.838;2023-07-20T07:46:32;1.02;;;0.52;;
21305;SDS011;10812;51.838;5.838;2023-07-20T07:49:00;0.77;;;0.77;;
21305;SDS011;10812;51.838;5.838;2023-07-20T07:51:28;1.25;;;0.80;;
21305;SDS011;10812;51.838;5.838;2023-07-20T07:53:58;1.13;;;0.60;;
21305;SDS011;10812;51.838;5.838;2023-07-20T07:56:26;0.85;;;0.85;;
21305;SDS011;10812;51.838;5.838;2023-07-20T07:58:55;1.35;;;0.88;;
21305;SDS011;10812;51.838;5.838;2023-07-20T08:01:23;0.90;;;0.50;;
21305;SDS011;10812;51.838;5.838;2023-07-20T08:03:52;1.02;;;0.80;;
21305;SDS011;10812;51.838;5.838;2023-07-20T08:06:20;1.02;;;0.80;;
21305;SDS011;10812;51.838;5.838;2023-07-20T08:08:48;1.92;;;0.80;;
21305;SDS011;10812;51.838;5.838;2023-07-20T08:11:16;1.15;;;0.90;;
21305;SDS011;10812;51.838;5.838;2023-07-20T08:13:45;0.90;;;0.63;;
21305;SDS011;10812;51.838;5.838;2023-07-20T08:16:14;0.65;;;0.65;;
21305;SDS011;10812;51.838;5.838;2023-07-20T08:18:43;1.08;;;0.73;;
21305;SDS011;10812;51.838;5.838;2023-07-20T08:21:12;0.60;;;0.60;;
21305;SDS011;10812;51.838;5.838;2023-07-20T08:23:40;1.30;;;1.15;;
21305;SDS011;10812;51.838;5.838;2023-07-20T08:26:08;0.88;;;0.82;;
21305;SDS011;10812;51.838;5.838;2023-07-20T08:28:36;2.70;;;1.25;;
21305;SDS011;10812;51.838;5.838;2023-07-20T08:31:05;1.52;;;0.88;;
21305;SDS011;10812;51.838;5.838;2023-07-20T08:33:35;1.00;;;0.90;;
21305;SDS011;10812;51.838;5.838;2023-07-20T08:36:03;1.00;;;0.77;;
21305;SDS011;10812;51.838;5.838;2023-07-20T08:38:32;1.42;;;0.90;;
21305;SDS011;10812;51.838;5.838;2023-07-20T08:41:00;2.67;;;0.82;;
21305;SDS011;10812;51.838;5.838;2023-07-20T08:43:29;1.17;;;0.88;;
21305;SDS011;10812;51.838;5.838;2023-07-20T08:45:58;1.73;;;1.10;;
21305;SDS011;10812;51.838;5.838;2023-07-20T08:48:27;1.17;;;0.98;;
21305;SDS011;10812;51.838;5.838;2023-07-20T08:50:58;0.70;;;0.70;;
21305;SDS011;10812;51.838;5.838;2023-07-20T08:53:28;1.08;;;0.98;;
21305;SDS011;10812;51.838;5.838;2023-07-20T08:55:59;1.83;;;1.02;;
21305;SDS011;10812;51.838;5.838;2023-07-20T08:58:29;1.70;;;1.00;;
21305;SDS011;10812;51.838;5.838;2023-07-20T09:00:58;1.13;;;0.70;;
21305;SDS011;10812;51.838;5.838;2023-07-20T09:03:28;1.73;;;0.90;;
21305;SDS011;10812;51.838;5.838;2023-07-20T09:05:56;0.85;;;0.73;;
21305;SDS011;10812;51.838;5.838;2023-07-20T09:08:25;1.13;;;0.80;;
21305;SDS011;10812;51.838;5.838;2023-07-20T09:10:53;1.30;;;0.90;;
21305;SDS011;10812;51.838;5.838;2023-07-20T09:13:21;1.92;;;1.20;;
21305;SDS011;10812;51.838;5.838;2023-07-20T09:15:53;1.10;;;0.80;;
21305;SDS011;10812;51.838;5.838;2023-07-20T09:18:24;1.10;;;0.95;;
21305;SDS011;10812;51.838;5.838;2023-07-20T09:20:53;0.93;;;0.80;;
21305;SDS011;10812;51.838;5.838;2023-07-20T09:23:30;1.17;;;1.05;;
21305;SDS011;10812;51.838;5.838;2023-07-20T09:26:00;1.75;;;1.10;;
21305;SDS011;10812;51.838;5.838;2023-07-20T09:28:28;2.58;;;1.08;;
21305;SDS011;10812;51.838;5.838;2023-07-20T09:30:57;1.30;;;1.08;;
21305;SDS011;10812;51.838;5.838;2023-07-20T09:33:25;0.85;;;0.80;;
21305;SDS011;10812;51.838;5.838;2023-07-20T09:35:54;1.05;;;0.80;;
21305;SDS011;10812;51.838;5.838;2023-07-20T09:38:50;0.93;;;0.70;;
21305;SDS011;10812;51.838;5.838;2023-07-20T09:41:21;2.17;;;0.80;;
21305;SDS011;10812;51.838;5.838;2023-07-20T09:43:52;0.93;;;0.70;;
21305;SDS011;10812;51.838;5.838;2023-07-20T09:46:20;1.45;;;0.80;;
21305;SDS011;10812;51.838;5.838;2023-07-20T09:48:52;1.23;;;0.60;;
21305;SDS011;10812;51.838;5.838;2023-07-20T09:51:24;2.03;;;0.60;;
21305;SDS011;10812;51.838;5.838;2023-07-20T09:53:53;1.77;;;0.63;;
21305;SDS011;10812;51.838;5.838;2023-07-20T09:56:22;1.20;;;0.80;;
21305;SDS011;10812;51.838;5.838;2023-07-20T09:58:51;0.98;;;0.70;;
21305;SDS011;10812;51.838;5.838;2023-07-20T10:01:20;0.85;;;0.70;;
21305;SDS011;10812;51.838;5.838;2023-07-20T10:03:51;1.23;;;0.85;;
21305;SDS011;10812;51.838;5.838;2023-07-20T10:06:23;1.15;;;0.73;;
21305;SDS011;10812;51.838;5.838;2023-07-20T10:08:52;1.40;;;0.75;;
21305;SDS011;10812;51.838;5.838;2023-07-20T10:11:23;1.23;;;0.93;;
21305;SDS011;10812;51.838;5.838;2023-07-20T10:13:57;1.17;;;0.90;;
21305;SDS011;10812;51.838;5.838;2023-07-20T10:16:28;0.88;;;0.77;;
21305;SDS011;10812;51.838;5.838;2023-07-20T10:21:55;1.88;;;1.10;;
21305;SDS011;10812;51.838;5.838;2023-07-20T10:24:31;0.80;;;0.77;;
21305;SDS011;10812;51.838;5.838;2023-07-20T10:27:00;1.13;;;0.82;;
21305;SDS011;10812;51.838;5.838;2023-07-20T10:29:28;0.80;;;0.80;;
21305;SDS011;10812;51.838;5.838;2023-07-20T10:31:57;1.15;;;0.73;;
21305;SDS011;10812;51.838;5.838;2023-07-20T10:34:25;1.35;;;1.15;;
21305;SDS011;10812;51.838;5.838;2023-07-20T10:36:54;1.40;;;1.02;;
21305;SDS011;10812;51.838;5.838;2023-07-20T10:39:22;0.63;;;0.50;;
21305;SDS011;10812;51.838;5.838;2023-07-20T10:42:01;1.05;;;0.60;;
21305;SDS011;10812;51.838;5.838;2023-07-20T10:44:30;1.15;;;0.63;;
21305;SDS011;10812;51.838;5.838;2023-07-20T10:46:59;0.70;;;0.70;;
21305;SDS011;10812;51.838;5.838;2023-07-20T10:49:29;1.52;;;0.70;;
21305;SDS011;10812;51.838;5.838;2023-07-20T10:52:00;0.88;;;0.80;;
21305;SDS011;10812;51.838;5.838;2023-07-20T10:54:33;0.77;;;0.70;;
21305;SDS011;10812;51.838;5.838;2023-07-20T10:59:50;1.60;;;0.95;;
21305;SDS011;10812;51.838;5.838;2023-07-20T11:02:18;1.77;;;0.90;;
21305;SDS011;10812;51.838;5.838;2023-07-20T11:04:47;2.63;;;0.82;;
21305;SDS011;10812;51.838;5.838;2023-07-20T11:07:17;1.80;;;0.70;;
21305;SDS011;10812;51.838;5.838;2023-07-20T11:10:12;6.95;;;1.20;;
21305;SDS011;10812;51.838;5.838;2023-07-20T11:16:01;1.20;;;0.82;;
21305;SDS011;10812;51.838;5.838;2023-07-20T11:18:32;1.25;;;0.80;;
21305;SDS011;10812;51.838;5.838;2023-07-20T11:21:06;1.15;;;1.08;;
21305;SDS011;10812;51.838;5.838;2023-07-20T11:23:37;3.55;;;1.40;;
21305;SDS011;10812;51.838;5.838;2023-07-20T11:26:06;2.67;;;1.00;;
21305;SDS011;10812;51.838;5.838;2023-07-20T11:28:36;1.25;;;0.98;;
21305;SDS011;10812;51.838;5.838;2023-07-20T11:31:04;1.27;;;1.10;;
21305;SDS011;10812;51.838;5.838;2023-07-20T11:33:32;1.85;;;1.20;;
21305;SDS011;10812;51.838;5.838;2023-07-20T11:36:00;1.33;;;0.88;;
21305;SDS011;10812;51.838;5.838;2023-07-20T11:38:48;1.45;;;0.90;;
21305;SDS011;10812;51.838;5.838;2023-07-20T11:41:16;12.73;;;2.95;;
21305;SDS011;10812;51.838;5.838;2023-07-20T11:43:47;2.25;;;1.73;;
21305;SDS011;10812;51.838;5.838;2023-07-20T11:46:15;2.05;;;1.10;;
21305;SDS011;10812;51.838;5.838;2023-07-20T11:48:44;1.35;;;1.00;;
21305;SDS011;10812;51.838;5.838;2023-07-20T11:51:15;1.00;;;0.90;;
21305;SDS011;10812;51.838;5.838;2023-07-20T11:53:44;1.42;;;1.20;;
21305;SDS011;10812;51.838;5.838;2023-07-20T11:56:13;1.52;;;1.40;;
21305;SDS011;10812;51.838;5.838;2023-07-20T11:58:42;2.25;;;1.10;;
21305;SDS011;10812;51.838;5.838;2023-07-20T12:01:12;1.08;;;0.85;;
21305;SDS011;10812;51.838;5.838;2023-07-20T12:03:41;1.77;;;1.20;;
21305;SDS011;10812;51.838;5.838;2023-07-20T12:06:10;1.98;;;1.30;;
21305;SDS011;10812;51.838;5.838;2023-07-20T12:08:43;4.18;;;1.38;;
21305;SDS011;10812;51.838;5.838;2023-07-20T12:11:11;1.10;;;0.93;;
21305;SDS011;10812;51.838;5.838;2023-07-20T12:13:41;1.70;;;0.98;;
21305;SDS011;10812;51.838;5.838;2023-07-20T12:16:14;1.10;;;1.00;;
21305;SDS011;10812;51.838;5.838;2023-07-20T12:18:43;1.17;;;1.08;;
21305;SDS011;10812;51.838;5.838;2023-07-20T12:21:11;3.30;;;1.67;;
21305;SDS011;10812;51.838;5.838;2023-07-20T12:23:39;1.98;;;1.30;;
21305;SDS011;10812;51.838;5.838;2023-07-20T12:26:09;2.08;;;1.50;;
21305;SDS011;10812;51.838;5.838;2023-07-20T12:28:38;2.92;;;1.20;;
21305;SDS011;10812;51.838;5.838;2023-07-20T12:31:08;1.70;;;1.33;;
21305;SDS011;10812;51.838;5.838;2023-07-20T12:33:38;1.27;;;1.17;;
21305;SDS011;10812;51.838;5.838;2023-07-20T12:36:06;1.75;;;1.20;;
21305;SDS011;10812;51.838;5.838;2023-07-20T12:38:34;3.67;;;1.38;;
21305;SDS011;10812;51.838;5.838;2023-07-20T12:41:03;1.40;;;1.30;;
21305;SDS011;10812;51.838;5.838;2023-07-20T12:43:31;1.95;;;1.17;;
21305;SDS011;10812;51.838;5.838;2023-07-20T12:45:59;1.38;;;1.00;;
21305;SDS011;10812;51.838;5.838;2023-07-20T12:48:27;2.22;;;1.15;;
21305;SDS011;10812;51.838;5.838;2023-07-20T12:50:57;2.70;;;1.70;;
21305;SDS011;10812;51.838;5.838;2023-07-20T12:53:25;2.35;;;1.73;;
21305;SDS011;10812;51.838;5.838;2023-07-20T12:55:53;1.05;;;1.00;;
21305;SDS011;10812;51.838;5.838;2023-07-20T12:58:21;1.30;;;0.90;;
21305;SDS011;10812;51.838;5.838;2023-07-20T13:00:50;1.58;;;1.40;;
21305;SDS011;10812;51.838;5.838;2023-07-20T13:03:18;2.55;;;1.58;;
21305;SDS011;10812;51.838;5.838;2023-07-20T13:05:49;1.42;;;1.33;;
21305;SDS011;10812;51.838;5.838;2023-07-20T13:08:21;1.73;;;1.10;;
21305;SDS011;10812;51.838;5.838;2023-07-20T13:10:52;2.53;;;1.20;;
21305;SDS011;10812;51.838;5.838;2023-07-20T13:13:20;2.22;;;1.50;;
21305;SDS011;10812;51.838;5.838;2023-07-20T13:15:48;2.50;;;1.30;;
21305;SDS011;10812;51.838;5.838;2023-07-20T13:18:16;1.70;;;1.60;;
21305;SDS011;10812;51.838;5.838;2023-07-20T13:20:45;1.88;;;1.60;;
21305;SDS011;10812;51.838;5.838;2023-07-20T13:23:13;1.98;;;1.55;;
21305;SDS011;10812;51.838;5.838;2023-07-20T13:25:42;2.70;;;1.85;;
21305;SDS011;10812;51.838;5.838;2023-07-20T13:28:10;1.58;;;1.38;;
21305;SDS011;10812;51.838;5.838;2023-07-20T13:30:38;2.67;;;1.73;;
21305;SDS011;10812;51.838;5.838;2023-07-20T13:33:07;2.33;;;1.67;;
21305;SDS011;10812;51.838;5.838;2023-07-20T13:35:39;2.22;;;1.90;;
21305;SDS011;10812;51.838;5.838;2023-07-20T13:38:13;2.28;;;1.70;;
21305;SDS011;10812;51.838;5.838;2023-07-20T13:40:43;1.67;;;1.58;;
21305;SDS011;10812;51.838;5.838;2023-07-20T13:43:12;2.17;;;1.70;;
21305;SDS011;10812;51.838;5.838;2023-07-20T13:45:42;3.22;;;1.90;;
21305;SDS011;10812;51.838;5.838;2023-07-20T13:48:10;3.35;;;1.65;;
21305;SDS011;10812;51.838;5.838;2023-07-20T13:50:45;1.60;;;1.10;;
21305;SDS011;10812;51.838;5.838;2023-07-20T13:53:26;1.55;;;1.45;;
21305;SDS011;10812;51.838;5.838;2023-07-20T13:55:59;1.40;;;1.30;;
21305;SDS011;10812;51.838;5.838;2023-07-20T13:58:30;2.20;;;1.55;;
21305;SDS011;10812;51.838;5.838;2023-07-20T14:00:58;2.00;;;1.20;;
21305;SDS011;10812;51.838;5.838;2023-07-20T14:03:26;2.03;;;1.50;;
21305;SDS011;10812;51.838;5.838;2023-07-20T14:05:55;1.33;;;1.23;;
21305;SDS011;10812;51.838;5.838;2023-07-20T14:08:26;1.65;;;1.55;;
21305;SDS011;10812;51.838;5.838;2023-07-20T14:10:56;1.00;;;0.80;;
21305;SDS011;10812;51.838;5.838;2023-07-20T14:13:28;1.23;;;1.08;;
21305;SDS011;10812;51.838;5.838;2023-07-20T14:16:12;1.67;;;1.58;;
21305;SDS011;10812;51.838;5.838;2023-07-20T14:18:40;1.17;;;0.93;;
21305;SDS011;10812;51.838;5.838;2023-07-20T14:21:15;1.77;;;1.20;;
21305;SDS011;10812;51.838;5.838;2023-07-20T14:23:44;1.90;;;1.30;;
21305;SDS011;10812;51.838;5.838;2023-07-20T14:26:19;1.95;;;1.05;;
21305;SDS011;10812;51.838;5.838;2023-07-20T14:28:50;1.48;;;1.17;;
21305;SDS011;10812;51.838;5.838;2023-07-20T14:31:18;1.20;;;1.10;;
21305;SDS011;10812;51.838;5.838;2023-07-20T14:33:46;1.60;;;1.50;;
21305;SDS011;10812;51.838;5.838;2023-07-20T14:36:15;2.10;;;1.60;;
21305;SDS011;10812;51.838;5.838;2023-07-20T14:38:44;1.40;;;1.30;;
21305;SDS011;10812;51.838;5.838;2023-07-20T14:41:12;1.20;;;1.02;;
21305;SDS011;10812;51.838;5.838;2023-07-20T14:43:40;1.67;;;1.30;;
21305;SDS011;10812;51.838;5.838;2023-07-20T14:46:10;1.30;;;1.20;;
21305;SDS011;10812;51.838;5.838;2023-07-20T14:48:38;1.30;;;1.20;;
21305;SDS011;10812;51.838;5.838;2023-07-20T14:51:06;1.90;;;1.35;;
21305;SDS011;10812;51.838;5.838;2023-07-20T14:53:34;2.80;;;1.40;;
21305;SDS011;10812;51.838;5.838;2023-07-20T14:56:08;2.50;;;1.35;;
21305;SDS011;10812;51.838;5.838;2023-07-20T14:58:53;2.88;;;1.58;;
21305;SDS011;10812;51.838;5.838;2023-07-20T15:01:23;4.75;;;3.63;;
21305;SDS011;10812;51.838;5.838;2023-07-20T15:03:51;3.45;;;2.70;;
21305;SDS011;10812;51.838;5.838;2023-07-20T15:06:24;1.67;;;1.58;;
21305;SDS011;10812;51.838;5.838;2023-07-20T15:08:52;1.67;;;1.58;;
21305;SDS011;10812;51.838;5.838;2023-07-20T15:11:23;1.60;;;1.17;;
21305;SDS011;10812;51.838;5.838;2023-07-20T15:13:53;1.73;;;1.10;;
21305;SDS011;10812;51.838;5.838;2023-07-20T15:16:21;1.70;;;1.10;;
21305;SDS011;10812;51.838;5.838;2023-07-20T15:18:51;1.50;;;1.40;;
21305;SDS011;10812;51.838;5.838;2023-07-20T15:21:19;3.28;;;1.50;;
21305;SDS011;10812;51.838;5.838;2023-07-20T15:23:47;3.17;;;1.30;;